sensor_id;sensor_type;location;lat;lon;timestamp;P1;durP1;ratioP1;P2;durP2;ratioP2
11604;SDS011;5858;43.076;25.626;2023-06-19T00:00:09;14.40;;;11.75;;
11604;SDS011;5858;43.076;25.626;2023-06-19T00:02:38;12.95;;;10.98;;
11604;SDS011;5858;43.076;25.626;2023-06-19T00:05:06;16.90;;;11.15;;
11604;SDS011;5858;43.076;25.626;2023-06-19T00:07:35;13.63;;;11.52;;
11604;SDS011;5858;43.076;25.626;2023-06-19T00:10:03;12.55;;;11.00;;
11604;SDS011;5858;43.076;25.626;2023-06-19T00:12:32;14.48;;;12.07;;
11604;SDS011;5858;43.076;25.626;2023-06-19T00:14:59;13.25;;;11.93;;
11604;SDS011;5858;43.076;25.626;2023-06-19T00:17:29;18.77;;;13.88;;
11604;SDS011;5858;43.076;25.626;2023-06-19T00:19:56;15.27;;;13.00;;
11604;SDS011;5858;43.076;25.626;2023-06-19T00:22:24;14.38;;;11.40;;
11604;SDS011;5858;43.076;25.626;2023-06-19T00:24:54;17.98;;;12.70;;
11604;SDS011;5858;43.076;25.626;2023-06-19T00:27:21;15.40;;;12.68;;
11604;SDS011;5858;43.076;25.626;2023-06-19T00:29:55;15.65;;;12.98;;
11604;SDS011;5858;43.076;25.626;2023-06-19T00:32:31;14.80;;;12.52;;
11604;SDS011;5858;43.076;25.626;2023-06-19T00:35:11;16.60;;;12.38;;
11604;SDS011;5858;43.076;25.626;2023-06-19T00:37:38;18.85;;;14.05;;
11604;SDS011;5858;43.076;25.626;2023-06-19T00:40:13;15.60;;;13.20;;
11604;SDS011;5858;43.076;25.626;2023-06-19T00:42:47;13.98;;;12.43;;
11604;SDS011;5858;43.076;25.626;2023-06-19T00:45:16;15.93;;;13.00;;
11604;SDS011;5858;43.076;25.626;2023-06-19T00:47:43;17.67;;;13.52;;
11604;SDS011;5858;43.076;25.626;2023-06-19T00:50:13;17.02;;;13.40;;
11604;SDS011;5858;43.076;25.626;2023-06-19T00:52:40;14.68;;;13.10;;
11604;SDS011;5858;43.076;25.626;2023-06-19T00:55:11;17.23;;;12.43;;
11604;SDS011;5858;43.076;25.626;2023-06-19T00:57:39;13.90;;;12.48;;
11604;SDS011;5858;43.076;25.626;2023-06-19T01:00:13;13.65;;;12.25;;
11604;SDS011;5858;43.076;25.626;2023-06-19T01:02:40;13.38;;;11.98;;
11604;SDS011;5858;43.076;25.626;2023-06-19T01:05:07;13.25;;;11.90;;
11604;SDS011;5858;43.076;25.626;2023-06-19T01:07:37;14.57;;;12.55;;
11604;SDS011;5858;43.076;25.626;2023-06-19T01:10:13;14.10;;;12.68;;
11604;SDS011;5858;43.076;25.626;2023-06-19T01:12:49;14.52;;;12.43;;
11604;SDS011;5858;43.076;25.626;2023-06-19T01:15:23;15.63;;;12.88;;
11604;SDS011;5858;43.076;25.626;2023-06-19T01:17:54;16.75;;;12.50;;
11604;SDS011;5858;43.076;25.626;2023-06-19T01:20:25;13.45;;;11.88;;
11604;SDS011;5858;43.076;25.626;2023-06-19T01:22:53;19.38;;;13.10;;
11604;SDS011;5858;43.076;25.626;2023-06-19T01:25:22;14.90;;;13.40;;
11604;SDS011;5858;43.076;25.626;2023-06-19T01:27:50;15.00;;;13.35;;
11604;SDS011;5858;43.076;25.626;2023-06-19T01:30:18;14.55;;;12.65;;
11604;SDS011;5858;43.076;25.626;2023-06-19T01:32:48;13.57;;;12.18;;
11604;SDS011;5858;43.076;25.626;2023-06-19T01:35:24;19.45;;;13.57;;
11604;SDS011;5858;43.076;25.626;2023-06-19T01:37:55;15.05;;;12.85;;
11604;SDS011;5858;43.076;25.626;2023-06-19T01:40:24;13.73;;;12.32;;
11604;SDS011;5858;43.076;25.626;2023-06-19T01:42:57;13.50;;;11.50;;
11604;SDS011;5858;43.076;25.626;2023-06-19T01:45:28;15.75;;;12.40;;
11604;SDS011;5858;43.076;25.626;2023-06-19T01:47:56;13.70;;;11.70;;
11604;SDS011;5858;43.076;25.626;2023-06-19T01:50:24;15.93;;;11.40;;
11604;SDS011;5858;43.076;25.626;2023-06-19T01:52:59;15.63;;;12.43;;
11604;SDS011;5858;43.076;25.626;2023-06-19T01:55:28;13.60;;;12.05;;
11604;SDS011;5858;43.076;25.626;2023-06-19T01:57:55;15.80;;;12.30;;
11604;SDS011;5858;43.076;25.626;2023-06-19T02:00:22;15.40;;;12.50;;
11604;SDS011;5858;43.076;25.626;2023-06-19T02:02:50;14.40;;;12.82;;
11604;SDS011;5858;43.076;25.626;2023-06-19T02:05:17;13.75;;;12.23;;
11604;SDS011;5858;43.076;25.626;2023-06-19T02:07:45;15.65;;;13.15;;
11604;SDS011;5858;43.076;25.626;2023-06-19T02:10:13;15.05;;;13.25;;
11604;SDS011;5858;43.076;25.626;2023-06-19T02:12:40;14.75;;;13.07;;
11604;SDS011;5858;43.076;25.626;2023-06-19T02:15:10;15.68;;;14.05;;
11604;SDS011;5858;43.076;25.626;2023-06-19T02:17:37;15.43;;;13.15;;
11604;SDS011;5858;43.076;25.626;2023-06-19T02:20:08;15.10;;;13.60;;
11604;SDS011;5858;43.076;25.626;2023-06-19T02:22:39;18.38;;;12.82;;
11604;SDS011;5858;43.076;25.626;2023-06-19T02:25:06;13.70;;;12.30;;
11604;SDS011;5858;43.076;25.626;2023-06-19T02:27:35;14.65;;;13.07;;
11604;SDS011;5858;43.076;25.626;2023-06-19T02:30:02;15.93;;;14.15;;
11604;SDS011;5858;43.076;25.626;2023-06-19T02:32:30;14.27;;;12.77;;
11604;SDS011;5858;43.076;25.626;2023-06-19T02:34:57;14.88;;;12.45;;
11604;SDS011;5858;43.076;25.626;2023-06-19T02:37:24;13.98;;;12.68;;
11604;SDS011;5858;43.076;25.626;2023-06-19T02:39:54;15.85;;;12.43;;
11604;SDS011;5858;43.076;25.626;2023-06-19T02:42:22;16.75;;;12.55;;
11604;SDS011;5858;43.076;25.626;2023-06-19T02:44:55;14.13;;;12.55;;
11604;SDS011;5858;43.076;25.626;2023-06-19T02:47:28;14.50;;;11.30;;
11604;SDS011;5858;43.076;25.626;2023-06-19T02:49:57;14.32;;;12.27;;
11604;SDS011;5858;43.076;25.626;2023-06-19T02:52:25;13.05;;;11.52;;
11604;SDS011;5858;43.076;25.626;2023-06-19T02:54:52;15.27;;;12.43;;
11604;SDS011;5858;43.076;25.626;2023-06-19T02:57:19;13.48;;;12.18;;
11604;SDS011;5858;43.076;25.626;2023-06-19T02:59:46;15.32;;;12.10;;
11604;SDS011;5858;43.076;25.626;2023-06-19T03:02:16;16.05;;;11.75;;
11604;SDS011;5858;43.076;25.626;2023-06-19T03:04:47;13.43;;;11.50;;
11604;SDS011;5858;43.076;25.626;2023-06-19T03:07:15;13.98;;;11.80;;
11604;SDS011;5858;43.076;25.626;2023-06-19T03:09:42;13.15;;;11.70;;
11604;SDS011;5858;43.076;25.626;2023-06-19T03:12:10;13.30;;;11.90;;
11604;SDS011;5858;43.076;25.626;2023-06-19T03:14:38;12.23;;;11.05;;
11604;SDS011;5858;43.076;25.626;2023-06-19T03:17:05;15.27;;;11.90;;
11604;SDS011;5858;43.076;25.626;2023-06-19T03:19:38;14.73;;;11.30;;
11604;SDS011;5858;43.076;25.626;2023-06-19T03:22:06;12.32;;;11.02;;
11604;SDS011;5858;43.076;25.626;2023-06-19T03:24:33;16.40;;;11.30;;
11604;SDS011;5858;43.076;25.626;2023-06-19T03:27:00;14.60;;;11.48;;
11604;SDS011;5858;43.076;25.626;2023-06-19T03:29:29;12.13;;;10.88;;
11604;SDS011;5858;43.076;25.626;2023-06-19T03:31:57;12.13;;;10.73;;
11604;SDS011;5858;43.076;25.626;2023-06-19T03:34:24;12.73;;;11.52;;
11604;SDS011;5858;43.076;25.626;2023-06-19T03:36:53;15.15;;;11.77;;
11604;SDS011;5858;43.076;25.626;2023-06-19T03:39:20;12.95;;;11.65;;
11604;SDS011;5858;43.076;25.626;2023-06-19T03:41:47;13.00;;;11.05;;
11604;SDS011;5858;43.076;25.626;2023-06-19T03:44:16;16.05;;;12.48;;
11604;SDS011;5858;43.076;25.626;2023-06-19T03:46:43;14.57;;;11.27;;
11604;SDS011;5858;43.076;25.626;2023-06-19T03:49:11;12.55;;;11.20;;
11604;SDS011;5858;43.076;25.626;2023-06-19T03:51:38;13.75;;;8.90;;
11604;SDS011;5858;43.076;25.626;2023-06-19T03:54:10;9.85;;;8.65;;
11604;SDS011;5858;43.076;25.626;2023-06-19T03:56:37;9.80;;;7.75;;
11604;SDS011;5858;43.076;25.626;2023-06-19T03:59:04;10.52;;;7.22;;
11604;SDS011;5858;43.076;25.626;2023-06-19T04:01:31;9.48;;;8.10;;
11604;SDS011;5858;43.076;25.626;2023-06-19T04:04:01;11.73;;;7.57;;
11604;SDS011;5858;43.076;25.626;2023-06-19T04:06:29;11.15;;;7.93;;
11604;SDS011;5858;43.076;25.626;2023-06-19T04:08:56;10.93;;;7.35;;
11604;SDS011;5858;43.076;25.626;2023-06-19T04:11:25;8.30;;;6.93;;
11604;SDS011;5858;43.076;25.626;2023-06-19T04:13:52;10.50;;;7.70;;
11604;SDS011;5858;43.076;25.626;2023-06-19T04:16:19;9.35;;;7.30;;
11604;SDS011;5858;43.076;25.626;2023-06-19T04:18:47;8.05;;;7.15;;
11604;SDS011;5858;43.076;25.626;2023-06-19T04:21:14;9.07;;;8.23;;
11604;SDS011;5858;43.076;25.626;2023-06-19T04:23:41;9.95;;;7.05;;
11604;SDS011;5858;43.076;25.626;2023-06-19T04:26:08;15.40;;;8.30;;
11604;SDS011;5858;43.076;25.626;2023-06-19T04:28:37;10.32;;;7.43;;
11604;SDS011;5858;43.076;25.626;2023-06-19T04:31:09;14.93;;;7.10;;
11604;SDS011;5858;43.076;25.626;2023-06-19T04:33:53;9.48;;;7.15;;
11604;SDS011;5858;43.076;25.626;2023-06-19T04:37:07;8.30;;;6.68;;
11604;SDS011;5858;43.076;25.626;2023-06-19T04:39:34;10.05;;;7.20;;
11604;SDS011;5858;43.076;25.626;2023-06-19T04:42:01;7.53;;;6.75;;
11604;SDS011;5858;43.076;25.626;2023-06-19T04:44:30;11.25;;;7.20;;
11604;SDS011;5858;43.076;25.626;2023-06-19T04:46:58;11.48;;;7.78;;
11604;SDS011;5858;43.076;25.626;2023-06-19T04:49:28;13.07;;;8.05;;
11604;SDS011;5858;43.076;25.626;2023-06-19T04:52:00;10.05;;;7.85;;
11604;SDS011;5858;43.076;25.626;2023-06-19T04:57:54;12.82;;;9.35;;
11604;SDS011;5858;43.076;25.626;2023-06-19T05:00:23;11.32;;;9.18;;
11604;SDS011;5858;43.076;25.626;2023-06-19T05:02:55;9.82;;;8.07;;
11604;SDS011;5858;43.076;25.626;2023-06-19T05:05:36;11.48;;;7.80;;
11604;SDS011;5858;43.076;25.626;2023-06-19T05:08:14;8.95;;;7.75;;
11604;SDS011;5858;43.076;25.626;2023-06-19T05:10:59;12.88;;;7.95;;
11604;SDS011;5858;43.076;25.626;2023-06-19T05:13:30;8.20;;;7.05;;
11604;SDS011;5858;43.076;25.626;2023-06-19T05:15:58;8.45;;;6.63;;
11604;SDS011;5858;43.076;25.626;2023-06-19T05:18:26;7.65;;;6.30;;
11604;SDS011;5858;43.076;25.626;2023-06-19T05:20:56;6.72;;;5.78;;
11604;SDS011;5858;43.076;25.626;2023-06-19T05:23:24;6.47;;;5.20;;
11604;SDS011;5858;43.076;25.626;2023-06-19T05:25:53;6.18;;;4.38;;
11604;SDS011;5858;43.076;25.626;2023-06-19T05:28:20;5.97;;;4.25;;
11604;SDS011;5858;43.076;25.626;2023-06-19T05:30:49;5.05;;;3.72;;
11604;SDS011;5858;43.076;25.626;2023-06-19T05:33:18;5.00;;;3.97;;
11604;SDS011;5858;43.076;25.626;2023-06-19T05:35:50;4.18;;;3.75;;
11604;SDS011;5858;43.076;25.626;2023-06-19T05:38:19;5.65;;;4.05;;
11604;SDS011;5858;43.076;25.626;2023-06-19T05:40:46;4.32;;;3.92;;
11604;SDS011;5858;43.076;25.626;2023-06-19T05:43:16;4.35;;;3.95;;
11604;SDS011;5858;43.076;25.626;2023-06-19T05:45:45;4.65;;;3.83;;
11604;SDS011;5858;43.076;25.626;2023-06-19T05:48:12;4.65;;;3.80;;
11604;SDS011;5858;43.076;25.626;2023-06-19T05:50:45;7.32;;;4.65;;
11604;SDS011;5858;43.076;25.626;2023-06-19T05:53:15;6.97;;;4.78;;
11604;SDS011;5858;43.076;25.626;2023-06-19T05:55:53;4.55;;;4.15;;
11604;SDS011;5858;43.076;25.626;2023-06-19T05:58:41;4.93;;;3.75;;
11604;SDS011;5858;43.076;25.626;2023-06-19T06:01:08;3.83;;;3.47;;
11604;SDS011;5858;43.076;25.626;2023-06-19T06:03:37;6.80;;;4.80;;
11604;SDS011;5858;43.076;25.626;2023-06-19T06:06:10;9.13;;;4.00;;
11604;SDS011;5858;43.076;25.626;2023-06-19T06:08:37;5.80;;;3.72;;
11604;SDS011;5858;43.076;25.626;2023-06-19T06:11:04;4.03;;;3.70;;
11604;SDS011;5858;43.076;25.626;2023-06-19T06:13:33;4.20;;;3.85;;
11604;SDS011;5858;43.076;25.626;2023-06-19T06:16:04;6.82;;;4.10;;
11604;SDS011;5858;43.076;25.626;2023-06-19T06:18:34;7.00;;;3.72;;
11604;SDS011;5858;43.076;25.626;2023-06-19T06:21:01;9.57;;;4.05;;
11604;SDS011;5858;43.076;25.626;2023-06-19T06:23:31;4.93;;;3.92;;
11604;SDS011;5858;43.076;25.626;2023-06-19T06:25:58;5.20;;;4.00;;
11604;SDS011;5858;43.076;25.626;2023-06-19T06:28:31;4.88;;;3.67;;
11604;SDS011;5858;43.076;25.626;2023-06-19T06:31:01;5.35;;;3.70;;
11604;SDS011;5858;43.076;25.626;2023-06-19T06:33:28;5.40;;;3.20;;
11604;SDS011;5858;43.076;25.626;2023-06-19T06:35:57;3.80;;;3.50;;
11604;SDS011;5858;43.076;25.626;2023-06-19T06:38:26;5.10;;;4.00;;
11604;SDS011;5858;43.076;25.626;2023-06-19T06:40:57;3.47;;;3.17;;
11604;SDS011;5858;43.076;25.626;2023-06-19T06:43:27;4.28;;;3.42;;
11604;SDS011;5858;43.076;25.626;2023-06-19T06:45:55;12.93;;;4.45;;
11604;SDS011;5858;43.076;25.626;2023-06-19T06:48:22;4.43;;;3.65;;
11604;SDS011;5858;43.076;25.626;2023-06-19T06:50:54;5.13;;;4.38;;
11604;SDS011;5858;43.076;25.626;2023-06-19T06:53:26;5.03;;;4.30;;
11604;SDS011;5858;43.076;25.626;2023-06-19T06:55:57;6.18;;;4.63;;
11604;SDS011;5858;43.076;25.626;2023-06-19T06:58:24;10.88;;;8.85;;
11604;SDS011;5858;43.076;25.626;2023-06-19T07:00:55;5.03;;;4.47;;
11604;SDS011;5858;43.076;25.626;2023-06-19T07:03:22;4.93;;;4.10;;
11604;SDS011;5858;43.076;25.626;2023-06-19T07:06:01;4.60;;;4.20;;
11604;SDS011;5858;43.076;25.626;2023-06-19T07:08:33;4.75;;;4.10;;
11604;SDS011;5858;43.076;25.626;2023-06-19T07:11:04;4.95;;;3.75;;
11604;SDS011;5858;43.076;25.626;2023-06-19T07:13:34;5.18;;;4.47;;
11604;SDS011;5858;43.076;25.626;2023-06-19T07:16:03;7.38;;;4.05;;
11604;SDS011;5858;43.076;25.626;2023-06-19T07:18:30;5.57;;;4.68;;
11604;SDS011;5858;43.076;25.626;2023-06-19T07:20:58;7.97;;;3.83;;
11604;SDS011;5858;43.076;25.626;2023-06-19T07:23:25;5.85;;;4.20;;
11604;SDS011;5858;43.076;25.626;2023-06-19T07:25:53;5.68;;;4.07;;
11604;SDS011;5858;43.076;25.626;2023-06-19T07:28:21;5.38;;;4.47;;
11604;SDS011;5858;43.076;25.626;2023-06-19T07:30:48;7.93;;;5.43;;
11604;SDS011;5858;43.076;25.626;2023-06-19T07:33:17;6.13;;;4.30;;
11604;SDS011;5858;43.076;25.626;2023-06-19T07:35:44;6.10;;;4.57;;
11604;SDS011;5858;43.076;25.626;2023-06-19T07:38:11;5.07;;;4.68;;
11604;SDS011;5858;43.076;25.626;2023-06-19T07:40:38;5.35;;;4.82;;
11604;SDS011;5858;43.076;25.626;2023-06-19T07:43:05;5.40;;;4.90;;
11604;SDS011;5858;43.076;25.626;2023-06-19T07:45:33;7.45;;;4.50;;
11604;SDS011;5858;43.076;25.626;2023-06-19T07:48:00;4.65;;;4.20;;
11604;SDS011;5858;43.076;25.626;2023-06-19T07:50:30;5.60;;;4.50;;
11604;SDS011;5858;43.076;25.626;2023-06-19T07:52:57;15.55;;;6.05;;
11604;SDS011;5858;43.076;25.626;2023-06-19T07:55:24;7.00;;;6.25;;
11604;SDS011;5858;43.076;25.626;2023-06-19T07:57:52;6.30;;;5.57;;
11604;SDS011;5858;43.076;25.626;2023-06-19T08:00:22;6.90;;;5.82;;
11604;SDS011;5858;43.076;25.626;2023-06-19T08:02:51;5.55;;;5.05;;
11604;SDS011;5858;43.076;25.626;2023-06-19T08:05:18;5.63;;;5.13;;
11604;SDS011;5858;43.076;25.626;2023-06-19T08:10:38;5.25;;;4.75;;
11604;SDS011;5858;43.076;25.626;2023-06-19T08:13:06;5.25;;;4.80;;
11604;SDS011;5858;43.076;25.626;2023-06-19T08:15:33;9.30;;;5.15;;
11604;SDS011;5858;43.076;25.626;2023-06-19T08:18:04;5.50;;;5.00;;
11604;SDS011;5858;43.076;25.626;2023-06-19T08:20:32;5.85;;;4.63;;
11604;SDS011;5858;43.076;25.626;2023-06-19T08:23:02;5.53;;;5.03;;
11604;SDS011;5858;43.076;25.626;2023-06-19T08:25:31;5.05;;;4.65;;
11604;SDS011;5858;43.076;25.626;2023-06-19T08:27:59;5.43;;;4.88;;
11604;SDS011;5858;43.076;25.626;2023-06-19T08:30:26;5.22;;;4.82;;
11604;SDS011;5858;43.076;25.626;2023-06-19T08:32:56;6.35;;;5.70;;
11604;SDS011;5858;43.076;25.626;2023-06-19T08:35:24;5.18;;;4.78;;
11604;SDS011;5858;43.076;25.626;2023-06-19T08:37:52;5.93;;;5.43;;
11604;SDS011;5858;43.076;25.626;2023-06-19T08:40:25;5.90;;;5.07;;
11604;SDS011;5858;43.076;25.626;2023-06-19T08:42:54;5.55;;;5.15;;
11604;SDS011;5858;43.076;25.626;2023-06-19T08:45:29;5.40;;;4.80;;
11604;SDS011;5858;43.076;25.626;2023-06-19T08:47:58;6.97;;;4.97;;
11604;SDS011;5858;43.076;25.626;2023-06-19T08:50:27;6.03;;;5.43;;
11604;SDS011;5858;43.076;25.626;2023-06-19T08:52:58;5.20;;;4.80;;
11604;SDS011;5858;43.076;25.626;2023-06-19T08:55:26;5.60;;;5.10;;
11604;SDS011;5858;43.076;25.626;2023-06-19T08:57:54;5.72;;;5.15;;
11604;SDS011;5858;43.076;25.626;2023-06-19T09:00:25;5.75;;;5.35;;
11604;SDS011;5858;43.076;25.626;2023-06-19T09:02:59;6.40;;;5.80;;
11604;SDS011;5858;43.076;25.626;2023-06-19T09:05:32;6.38;;;5.50;;
11604;SDS011;5858;43.076;25.626;2023-06-19T09:07:59;5.50;;;5.10;;
11604;SDS011;5858;43.076;25.626;2023-06-19T09:10:28;5.45;;;5.00;;
11604;SDS011;5858;43.076;25.626;2023-06-19T09:12:58;6.35;;;5.38;;
11604;SDS011;5858;43.076;25.626;2023-06-19T09:15:30;6.53;;;5.93;;
11604;SDS011;5858;43.076;25.626;2023-06-19T09:18:00;6.57;;;5.78;;
11604;SDS011;5858;43.076;25.626;2023-06-19T09:20:32;6.90;;;5.68;;
11604;SDS011;5858;43.076;25.626;2023-06-19T09:23:05;6.63;;;5.97;;
11604;SDS011;5858;43.076;25.626;2023-06-19T09:25:42;6.55;;;5.93;;
11604;SDS011;5858;43.076;25.626;2023-06-19T09:28:16;7.22;;;6.15;;
11604;SDS011;5858;43.076;25.626;2023-06-19T09:30:51;7.57;;;5.95;;
11604;SDS011;5858;43.076;25.626;2023-06-19T09:33:22;6.45;;;5.90;;
11604;SDS011;5858;43.076;25.626;2023-06-19T09:35:51;8.25;;;6.55;;
11604;SDS011;5858;43.076;25.626;2023-06-19T09:38:22;6.80;;;6.15;;
11604;SDS011;5858;43.076;25.626;2023-06-19T09:40:52;7.68;;;6.85;;
11604;SDS011;5858;43.076;25.626;2023-06-19T09:43:29;8.70;;;6.40;;
11604;SDS011;5858;43.076;25.626;2023-06-19T09:46:10;6.97;;;6.40;;
11604;SDS011;5858;43.076;25.626;2023-06-19T09:48:48;9.32;;;6.10;;
11604;SDS011;5858;43.076;25.626;2023-06-19T09:51:42;6.55;;;5.95;;
11604;SDS011;5858;43.076;25.626;2023-06-19T09:54:10;7.57;;;6.85;;
11604;SDS011;5858;43.076;25.626;2023-06-19T09:56:43;7.78;;;5.68;;
11604;SDS011;5858;43.076;25.626;2023-06-19T09:59:16;6.68;;;6.03;;
11604;SDS011;5858;43.076;25.626;2023-06-19T10:01:48;6.95;;;6.35;;
11604;SDS011;5858;43.076;25.626;2023-06-19T10:04:16;6.38;;;5.78;;
11604;SDS011;5858;43.076;25.626;2023-06-19T10:06:47;8.18;;;6.88;;
11604;SDS011;5858;43.076;25.626;2023-06-19T10:09:20;8.73;;;6.55;;
11604;SDS011;5858;43.076;25.626;2023-06-19T10:11:47;6.78;;;6.07;;
11604;SDS011;5858;43.076;25.626;2023-06-19T10:14:17;7.00;;;6.43;;
11604;SDS011;5858;43.076;25.626;2023-06-19T10:16:44;7.63;;;6.15;;
11604;SDS011;5858;43.076;25.626;2023-06-19T10:19:13;6.90;;;6.25;;
11604;SDS011;5858;43.076;25.626;2023-06-19T10:21:44;6.55;;;5.95;;
11604;SDS011;5858;43.076;25.626;2023-06-19T10:24:19;7.55;;;6.63;;
11604;SDS011;5858;43.076;25.626;2023-06-19T10:26:57;7.13;;;6.43;;
11604;SDS011;5858;43.076;25.626;2023-06-19T10:29:37;7.93;;;7.15;;
11604;SDS011;5858;43.076;25.626;2023-06-19T10:32:23;7.30;;;6.68;;
11604;SDS011;5858;43.076;25.626;2023-06-19T10:35:10;7.30;;;6.70;;
11604;SDS011;5858;43.076;25.626;2023-06-19T10:37:39;7.43;;;6.82;;
11604;SDS011;5858;43.076;25.626;2023-06-19T10:40:09;7.97;;;7.28;;
11604;SDS011;5858;43.076;25.626;2023-06-19T10:42:39;7.25;;;6.60;;
11604;SDS011;5858;43.076;25.626;2023-06-19T10:45:16;12.73;;;6.85;;
11604;SDS011;5858;43.076;25.626;2023-06-19T10:47:53;7.20;;;6.60;;
11604;SDS011;5858;43.076;25.626;2023-06-19T10:50:21;6.43;;;5.82;;
11604;SDS011;5858;43.076;25.626;2023-06-19T10:52:52;6.82;;;6.25;;
11604;SDS011;5858;43.076;25.626;2023-06-19T10:55:22;6.65;;;6.15;;
11604;SDS011;5858;43.076;25.626;2023-06-19T10:57:49;6.82;;;6.22;;
11604;SDS011;5858;43.076;25.626;2023-06-19T11:00:27;6.75;;;6.07;;
11604;SDS011;5858;43.076;25.626;2023-06-19T11:02:58;10.60;;;6.82;;
11604;SDS011;5858;43.076;25.626;2023-06-19T11:05:27;7.63;;;5.75;;
11604;SDS011;5858;43.076;25.626;2023-06-19T11:07:55;8.70;;;6.40;;
11604;SDS011;5858;43.076;25.626;2023-06-19T11:10:27;7.32;;;6.07;;
11604;SDS011;5858;43.076;25.626;2023-06-19T11:12:57;6.75;;;6.15;;
11604;SDS011;5858;43.076;25.626;2023-06-19T11:15:31;7.05;;;5.95;;
11604;SDS011;5858;43.076;25.626;2023-06-19T11:18:00;7.05;;;6.47;;
11604;SDS011;5858;43.076;25.626;2023-06-19T11:20:28;7.60;;;6.32;;
11604;SDS011;5858;43.076;25.626;2023-06-19T11:22:57;6.22;;;5.72;;
11604;SDS011;5858;43.076;25.626;2023-06-19T11:25:35;6.53;;;5.93;;
11604;SDS011;5858;43.076;25.626;2023-06-19T11:28:10;6.90;;;6.20;;
11604;SDS011;5858;43.076;25.626;2023-06-19T11:30:38;7.10;;;6.25;;
11604;SDS011;5858;43.076;25.626;2023-06-19T11:33:15;7.85;;;6.03;;
11604;SDS011;5858;43.076;25.626;2023-06-19T11:35:47;9.35;;;6.20;;
11604;SDS011;5858;43.076;25.626;2023-06-19T11:38:18;6.15;;;5.57;;
11604;SDS011;5858;43.076;25.626;2023-06-19T11:40:49;7.85;;;5.07;;
11604;SDS011;5858;43.076;25.626;2023-06-19T11:43:26;6.22;;;5.75;;
11604;SDS011;5858;43.076;25.626;2023-06-19T11:45:55;5.75;;;5.25;;
11604;SDS011;5858;43.076;25.626;2023-06-19T11:48:28;5.30;;;4.80;;
11604;SDS011;5858;43.076;25.626;2023-06-19T11:50:58;7.13;;;4.72;;
11604;SDS011;5858;43.076;25.626;2023-06-19T11:53:25;5.38;;;4.88;;
11604;SDS011;5858;43.076;25.626;2023-06-19T11:55:56;6.68;;;4.68;;
11604;SDS011;5858;43.076;25.626;2023-06-19T11:58:23;6.03;;;5.47;;
11604;SDS011;5858;43.076;25.626;2023-06-19T12:00:53;5.65;;;5.05;;
11604;SDS011;5858;43.076;25.626;2023-06-19T12:03:21;5.90;;;5.10;;
11604;SDS011;5858;43.076;25.626;2023-06-19T12:05:48;5.65;;;4.82;;
11604;SDS011;5858;43.076;25.626;2023-06-19T12:08:15;6.80;;;5.10;;
11604;SDS011;5858;43.076;25.626;2023-06-19T12:10:42;8.02;;;5.13;;
11604;SDS011;5858;43.076;25.626;2023-06-19T12:13:11;6.07;;;4.03;;
11604;SDS011;5858;43.076;25.626;2023-06-19T12:15:38;5.82;;;4.20;;
11604;SDS011;5858;43.076;25.626;2023-06-19T12:18:05;4.07;;;3.72;;
11604;SDS011;5858;43.076;25.626;2023-06-19T12:20:32;4.72;;;4.32;;
11604;SDS011;5858;43.076;25.626;2023-06-19T12:22:59;6.13;;;4.00;;
11604;SDS011;5858;43.076;25.626;2023-06-19T12:25:26;5.05;;;3.97;;
11604;SDS011;5858;43.076;25.626;2023-06-19T12:27:53;5.40;;;4.53;;
11604;SDS011;5858;43.076;25.626;2023-06-19T12:30:22;4.18;;;3.78;;
11604;SDS011;5858;43.076;25.626;2023-06-19T12:32:50;4.30;;;3.95;;
11604;SDS011;5858;43.076;25.626;2023-06-19T12:35:17;4.65;;;3.45;;
11604;SDS011;5858;43.076;25.626;2023-06-19T12:37:44;3.88;;;3.58;;
11604;SDS011;5858;43.076;25.626;2023-06-19T12:40:14;4.57;;;3.70;;
11604;SDS011;5858;43.076;25.626;2023-06-19T12:42:49;6.10;;;4.03;;
11604;SDS011;5858;43.076;25.626;2023-06-19T12:45:16;8.52;;;4.32;;
11604;SDS011;5858;43.076;25.626;2023-06-19T12:47:45;4.20;;;3.80;;
11604;SDS011;5858;43.076;25.626;2023-06-19T12:50:12;5.97;;;3.75;;
11604;SDS011;5858;43.076;25.626;2023-06-19T12:52:39;4.03;;;3.58;;
11604;SDS011;5858;43.076;25.626;2023-06-19T12:55:06;4.32;;;4.03;;
11604;SDS011;5858;43.076;25.626;2023-06-19T12:57:34;4.20;;;3.80;;
11604;SDS011;5858;43.076;25.626;2023-06-19T13:00:01;4.20;;;3.83;;
11604;SDS011;5858;43.076;25.626;2023-06-19T13:02:30;5.93;;;4.10;;
11604;SDS011;5858;43.076;25.626;2023-06-19T13:04:59;3.80;;;3.50;;
11604;SDS011;5858;43.076;25.626;2023-06-19T13:07:26;5.68;;;4.00;;
11604;SDS011;5858;43.076;25.626;2023-06-19T13:09:53;3.97;;;3.50;;
11604;SDS011;5858;43.076;25.626;2023-06-19T13:12:21;3.55;;;3.15;;
11604;SDS011;5858;43.076;25.626;2023-06-19T13:14:49;4.28;;;3.70;;
11604;SDS011;5858;43.076;25.626;2023-06-19T13:17:16;3.95;;;3.63;;
11604;SDS011;5858;43.076;25.626;2023-06-19T13:19:52;5.32;;;4.20;;
11604;SDS011;5858;43.076;25.626;2023-06-19T13:22:20;4.47;;;3.65;;
11604;SDS011;5858;43.076;25.626;2023-06-19T13:24:50;4.30;;;3.67;;
11604;SDS011;5858;43.076;25.626;2023-06-19T13:27:18;5.75;;;3.83;;
11604;SDS011;5858;43.076;25.626;2023-06-19T13:29:45;3.67;;;3.05;;
11604;SDS011;5858;43.076;25.626;2023-06-19T13:32:12;4.82;;;3.70;;
11604;SDS011;5858;43.076;25.626;2023-06-19T13:34:39;5.20;;;3.58;;
11604;SDS011;5858;43.076;25.626;2023-06-19T13:40:09;6.80;;;3.55;;
11604;SDS011;5858;43.076;25.626;2023-06-19T13:42:38;4.65;;;3.80;;
11604;SDS011;5858;43.076;25.626;2023-06-19T13:45:06;4.40;;;4.00;;
11604;SDS011;5858;43.076;25.626;2023-06-19T13:47:33;5.53;;;4.07;;
11604;SDS011;5858;43.076;25.626;2023-06-19T13:50:00;4.60;;;3.67;;
11604;SDS011;5858;43.076;25.626;2023-06-19T13:52:28;4.30;;;3.72;;
11604;SDS011;5858;43.076;25.626;2023-06-19T13:54:56;4.22;;;3.92;;
11604;SDS011;5858;43.076;25.626;2023-06-19T13:57:23;4.88;;;3.70;;
11604;SDS011;5858;43.076;25.626;2023-06-19T13:59:50;4.85;;;3.90;;
11604;SDS011;5858;43.076;25.626;2023-06-19T14:02:17;4.78;;;3.85;;
11604;SDS011;5858;43.076;25.626;2023-06-19T14:04:44;8.18;;;3.65;;
11604;SDS011;5858;43.076;25.626;2023-06-19T14:07:11;4.90;;;3.53;;
11604;SDS011;5858;43.076;25.626;2023-06-19T14:09:39;4.38;;;3.65;;
11604;SDS011;5858;43.076;25.626;2023-06-19T14:12:09;4.10;;;3.65;;
11604;SDS011;5858;43.076;25.626;2023-06-19T14:14:36;4.38;;;3.78;;
11604;SDS011;5858;43.076;25.626;2023-06-19T14:17:04;4.97;;;3.30;;
11604;SDS011;5858;43.076;25.626;2023-06-19T14:19:36;4.93;;;3.78;;
11604;SDS011;5858;43.076;25.626;2023-06-19T14:22:15;4.88;;;3.85;;
11604;SDS011;5858;43.076;25.626;2023-06-19T14:24:43;4.65;;;4.20;;
11604;SDS011;5858;43.076;25.626;2023-06-19T14:27:52;5.28;;;3.90;;
11604;SDS011;5858;43.076;25.626;2023-06-19T14:30:22;5.85;;;4.05;;
11604;SDS011;5858;43.076;25.626;2023-06-19T14:32:49;5.22;;;4.20;;
11604;SDS011;5858;43.076;25.626;2023-06-19T14:35:16;5.82;;;3.90;;
11604;SDS011;5858;43.076;25.626;2023-06-19T14:37:44;5.40;;;4.13;;
11604;SDS011;5858;43.076;25.626;2023-06-19T14:40:13;5.07;;;3.80;;
11604;SDS011;5858;43.076;25.626;2023-06-19T14:42:40;7.45;;;4.28;;
11604;SDS011;5858;43.076;25.626;2023-06-19T14:45:09;3.75;;;3.35;;
11604;SDS011;5858;43.076;25.626;2023-06-19T14:47:37;3.80;;;3.50;;
11604;SDS011;5858;43.076;25.626;2023-06-19T14:50:07;5.00;;;3.75;;
11604;SDS011;5858;43.076;25.626;2023-06-19T14:52:34;5.03;;;3.80;;
11604;SDS011;5858;43.076;25.626;2023-06-19T14:55:01;4.50;;;4.03;;
11604;SDS011;5858;43.076;25.626;2023-06-19T14:57:28;4.20;;;3.88;;
11604;SDS011;5858;43.076;25.626;2023-06-19T14:59:56;4.95;;;4.03;;
11604;SDS011;5858;43.076;25.626;2023-06-19T15:02:24;4.30;;;3.90;;
11604;SDS011;5858;43.076;25.626;2023-06-19T15:04:51;5.82;;;3.97;;